sensor_id;sensor_type;location;lat;lon;timestamp;pressure;altitude;pressure_sealevel;temperature;humidity
49915;BME280;35806;47.958;13.158;2024-03-25T00:01:36;93818.92;;;0.73;65.16
49915;BME280;35806;47.958;13.158;2024-03-25T00:04:04;93820.15;;;0.29;66.01
49915;BME280;35806;47.958;13.158;2024-03-25T00:06:31;93820.33;;;0.61;65.30
49915;BME280;35806;47.958;13.158;2024-03-25T00:08:59;93816.12;;;0.72;65.11
49915;BME280;35806;47.958;13.158;2024-03-25T00:11:27;93818.50;;;0.62;65.19
49915;BME280;35806;47.958;13.158;2024-03-25T00:13:54;93817.10;;;0.19;66.21
49915;BME280;35806;47.958;13.158;2024-03-25T00:16:22;93817.53;;;0.34;64.93
49915;BME280;35806;47.958;13.158;2024-03-25T00:18:50;93816.50;;;0.57;65.57
49915;BME280;35806;47.958;13.158;2024-03-25T00:21:18;93820.29;;;0.53;64.32
49915;BME280;35806;47.958;13.158;2024-03-25T00:23:45;93817.88;;;0.57;64.25
49915;BME280;35806;47.958;13.158;2024-03-25T00:26:13;93823.03;;;1.28;63.23
49915;BME280;35806;47.958;13.158;2024-03-25T00:28:40;93812.43;;;1.15;63.39
49915;BME280;35806;47.958;13.158;2024-03-25T00:31:08;93817.00;;;0.85;63.65
49915;BME280;35806;47.958;13.158;2024-03-25T00:33:36;93816.13;;;1.22;63.15
49915;BME280;35806;47.958;13.158;2024-03-25T00:36:04;93824.66;;;0.71;62.82
49915;BME280;35806;47.958;13.158;2024-03-25T00:38:32;93820.12;;;0.44;63.50
49915;BME280;35806;47.958;13.158;2024-03-25T00:41:00;93817.10;;;0.48;63.53
49915;BME280;35806;47.958;13.158;2024-03-25T00:43:27;93817.05;;;0.68;63.92
49915;BME280;35806;47.958;13.158;2024-03-25T00:45:54;93818.88;;;1.02;62.69
49915;BME280;35806;47.958;13.158;2024-03-25T00:48:22;93818.90;;;0.42;63.68
49915;BME280;35806;47.958;13.158;2024-03-25T00:50:49;93818.21;;;0.56;64.07
49915;BME280;35806;47.958;13.158;2024-03-25T00:53:17;93814.21;;;0.79;62.12
49915;BME280;35806;47.958;13.158;2024-03-25T00:55:45;93815.91;;;0.87;62.70
49915;BME280;35806;47.958;13.158;2024-03-25T00:58:13;93814.10;;;1.29;62.86
49915;BME280;35806;47.958;13.158;2024-03-25T01:00:40;93816.33;;;0.62;62.93
49915;BME280;35806;47.958;13.158;2024-03-25T01:03:07;93812.12;;;1.01;63.78
49915;BME280;35806;47.958;13.158;2024-03-25T01:05:34;93811.55;;;1.06;63.69
49915;BME280;35806;47.958;13.158;2024-03-25T01:08:01;93808.62;;;0.02;65.46
49915;BME280;35806;47.958;13.158;2024-03-25T01:10:29;93810.52;;;0.39;64.14
49915;BME280;35806;47.958;13.158;2024-03-25T01:12:56;93809.19;;;0.13;65.65
49915;BME280;35806;47.958;13.158;2024-03-25T01:15:24;93808.24;;;0.21;65.96
49915;BME280;35806;47.958;13.158;2024-03-25T01:17:52;93808.35;;;0.92;64.93
49915;BME280;35806;47.958;13.158;2024-03-25T01:20:20;93806.17;;;0.65;64.08
49915;BME280;35806;47.958;13.158;2024-03-25T01:22:47;93802.84;;;0.83;63.86
49915;BME280;35806;47.958;13.158;2024-03-25T01:25:15;93805.29;;;0.64;62.98
49915;BME280;35806;47.958;13.158;2024-03-25T01:27:43;93811.31;;;0.93;63.24
49915;BME280;35806;47.958;13.158;2024-03-25T01:30:11;93801.94;;;1.42;63.87
49915;BME280;35806;47.958;13.158;2024-03-25T01:32:39;93806.14;;;0.77;63.16
49915;BME280;35806;47.958;13.158;2024-03-25T01:35:08;93813.05;;;0.28;64.68
49915;BME280;35806;47.958;13.158;2024-03-25T01:37:35;93810.78;;;0.94;63.16
49915;BME280;35806;47.958;13.158;2024-03-25T01:40:04;93807.09;;;0.94;63.81
49915;BME280;35806;47.958;13.158;2024-03-25T01:42:31;93809.09;;;0.67;64.21
49915;BME280;35806;47.958;13.158;2024-03-25T01:44:59;93807.06;;;0.49;65.38
49915;BME280;35806;47.958;13.158;2024-03-25T01:47:27;93805.64;;;0.86;63.57
49915;BME280;35806;47.958;13.158;2024-03-25T01:49:54;93814.48;;;1.05;63.32
49915;BME280;35806;47.958;13.158;2024-03-25T01:52:22;93807.33;;;0.91;62.69
49915;BME280;35806;47.958;13.158;2024-03-25T01:54:50;93811.36;;;1.35;61.71
49915;BME280;35806;47.958;13.158;2024-03-25T01:57:17;93807.82;;;0.66;62.44
49915;BME280;35806;47.958;13.158;2024-03-25T01:59:46;93802.07;;;1.57;62.36
49915;BME280;35806;47.958;13.158;2024-03-25T02:02:14;93810.45;;;1.01;63.70
49915;BME280;35806;47.958;13.158;2024-03-25T02:04:41;93808.82;;;1.83;61.19
49915;BME280;35806;47.958;13.158;2024-03-25T02:07:11;93810.52;;;1.69;60.35
49915;BME280;35806;47.958;13.158;2024-03-25T02:09:39;93808.29;;;1.20;61.12
49915;BME280;35806;47.958;13.158;2024-03-25T02:12:08;93811.49;;;0.76;63.07
49915;BME280;35806;47.958;13.158;2024-03-25T02:14:36;93816.83;;;1.09;62.32
49915;BME280;35806;47.958;13.158;2024-03-25T02:17:04;93810.08;;;1.65;62.06
49915;BME280;35806;47.958;13.158;2024-03-25T02:19:33;93809.42;;;1.54;61.59
49915;BME280;35806;47.958;13.158;2024-03-25T02:22:02;93813.27;;;1.55;61.83
49915;BME280;35806;47.958;13.158;2024-03-25T02:24:31;93814.20;;;1.28;61.79
49915;BME280;35806;47.958;13.158;2024-03-25T02:27:00;93806.94;;;1.12;63.39
49915;BME280;35806;47.958;13.158;2024-03-25T02:29:33;93807.72;;;0.84;63.62
49915;BME280;35806;47.958;13.158;2024-03-25T02:32:01;93804.05;;;1.34;62.84
49915;BME280;35806;47.958;13.158;2024-03-25T02:34:28;93805.22;;;1.88;62.60
49915;BME280;35806;47.958;13.158;2024-03-25T02:36:56;93812.47;;;1.76;61.21
49915;BME280;35806;47.958;13.158;2024-03-25T02:39:23;93809.94;;;1.53;62.07
49915;BME280;35806;47.958;13.158;2024-03-25T02:41:51;93808.08;;;1.93;62.63
49915;BME280;35806;47.958;13.158;2024-03-25T02:44:19;93809.14;;;0.85;63.56
49915;BME280;35806;47.958;13.158;2024-03-25T02:46:48;93808.13;;;1.29;65.05
49915;BME280;35806;47.958;13.158;2024-03-25T02:49:16;93806.74;;;0.81;65.15
49915;BME280;35806;47.958;13.158;2024-03-25T02:51:43;93807.13;;;1.48;64.28
49915;BME280;35806;47.958;13.158;2024-03-25T02:54:10;93811.38;;;1.83;62.70
49915;BME280;35806;47.958;13.158;2024-03-25T02:56:36;93806.38;;;1.84;62.92
49915;BME280;35806;47.958;13.158;2024-03-25T02:59:04;93806.35;;;1.25;63.65
49915;BME280;35806;47.958;13.158;2024-03-25T03:01:31;93808.75;;;1.82;62.72
49915;BME280;35806;47.958;13.158;2024-03-25T03:03:58;93808.08;;;1.82;63.27
49915;BME280;35806;47.958;13.158;2024-03-25T03:06:25;93811.79;;;1.55;63.62
49915;BME280;35806;47.958;13.158;2024-03-25T03:08:52;93810.41;;;2.02;62.31
49915;BME280;35806;47.958;13.158;2024-03-25T03:11:19;93807.40;;;1.63;62.59
49915;BME280;35806;47.958;13.158;2024-03-25T03:13:46;93806.45;;;1.81;62.53
49915;BME280;35806;47.958;13.158;2024-03-25T03:16:14;93806.98;;;0.97;64.14
49915;BME280;35806;47.958;13.158;2024-03-25T03:18:42;93807.45;;;1.35;63.29
49915;BME280;35806;47.958;13.158;2024-03-25T03:21:09;93808.40;;;1.97;63.03
49915;BME280;35806;47.958;13.158;2024-03-25T03:23:37;93810.90;;;1.35;65.10
49915;BME280;35806;47.958;13.158;2024-03-25T03:26:04;93810.56;;;1.73;63.19
49915;BME280;35806;47.958;13.158;2024-03-25T03:28:32;93811.55;;;1.99;62.78
49915;BME280;35806;47.958;13.158;2024-03-25T03:31:00;93815.23;;;1.07;64.43
49915;BME280;35806;47.958;13.158;2024-03-25T03:33:27;93815.23;;;1.40;63.11
49915;BME280;35806;47.958;13.158;2024-03-25T03:35:55;93818.04;;;1.95;62.68
49915;BME280;35806;47.958;13.158;2024-03-25T03:38:23;93817.54;;;1.48;62.02
49915;BME280;35806;47.958;13.158;2024-03-25T03:40:57;93817.32;;;2.02;62.25
49915;BME280;35806;47.958;13.158;2024-03-25T03:43:29;93817.25;;;1.56;61.94
49915;BME280;35806;47.958;13.158;2024-03-25T03:45:56;93818.26;;;2.00;60.98
49915;BME280;35806;47.958;13.158;2024-03-25T03:48:31;93819.71;;;0.95;62.84
49915;BME280;35806;47.958;13.158;2024-03-25T03:51:20;93824.68;;;1.74;60.22
49915;BME280;35806;47.958;13.158;2024-03-25T03:53:48;93819.99;;;1.92;59.56
49915;BME280;35806;47.958;13.158;2024-03-25T03:56:16;93820.26;;;2.04;60.24
49915;BME280;35806;47.958;13.158;2024-03-25T03:58:44;93821.80;;;2.03;60.20
49915;BME280;35806;47.958;13.158;2024-03-25T04:01:16;93824.72;;;2.38;59.93
49915;BME280;35806;47.958;13.158;2024-03-25T04:03:44;93826.40;;;1.86;60.41
49915;BME280;35806;47.958;13.158;2024-03-25T04:06:13;93826.51;;;2.20;59.18
49915;BME280;35806;47.958;13.158;2024-03-25T04:08:41;93826.12;;;1.64;59.78
49915;BME280;35806;47.958;13.158;2024-03-25T04:11:09;93825.45;;;2.29;58.22
49915;BME280;35806;47.958;13.158;2024-03-25T04:13:37;93833.41;;;1.94;58.89
49915;BME280;35806;47.958;13.158;2024-03-25T04:16:06;93833.10;;;1.68;60.10
49915;BME280;35806;47.958;13.158;2024-03-25T04:18:34;93832.04;;;2.30;59.85
49915;BME280;35806;47.958;13.158;2024-03-25T04:21:01;93835.06;;;1.27;60.99
49915;BME280;35806;47.958;13.158;2024-03-25T04:23:29;93831.21;;;1.92;59.22
49915;BME280;35806;47.958;13.158;2024-03-25T04:26:01;93836.93;;;1.80;59.12
49915;BME280;35806;47.958;13.158;2024-03-25T04:28:28;93844.66;;;0.44;60.92
49915;BME280;35806;47.958;13.158;2024-03-25T04:30:55;93842.89;;;1.58;60.70
49915;BME280;35806;47.958;13.158;2024-03-25T04:33:23;93844.54;;;1.29;59.35
49915;BME280;35806;47.958;13.158;2024-03-25T04:35:51;93842.31;;;0.73;61.50
49915;BME280;35806;47.958;13.158;2024-03-25T04:38:23;93844.96;;;1.13;60.11
49915;BME280;35806;47.958;13.158;2024-03-25T04:40:50;93839.42;;;1.37;60.24
49915;BME280;35806;47.958;13.158;2024-03-25T04:43:18;93839.21;;;1.87;59.05
49915;BME280;35806;47.958;13.158;2024-03-25T04:45:45;93844.62;;;0.08;62.85
49915;BME280;35806;47.958;13.158;2024-03-25T04:48:13;93842.76;;;0.54;62.18
49915;BME280;35806;47.958;13.158;2024-03-25T04:50:40;93843.11;;;1.15;60.46
49915;BME280;35806;47.958;13.158;2024-03-25T04:53:12;93843.17;;;1.42;60.75
49915;BME280;35806;47.958;13.158;2024-03-25T04:55:39;93850.59;;;2.10;58.79
49915;BME280;35806;47.958;13.158;2024-03-25T04:58:07;93851.68;;;1.75;59.47
49915;BME280;35806;47.958;13.158;2024-03-25T05:00:34;93852.71;;;0.81;61.23
49915;BME280;35806;47.958;13.158;2024-03-25T05:03:07;93851.71;;;1.43;60.10
49915;BME280;35806;47.958;13.158;2024-03-25T05:05:34;93860.73;;;1.64;59.37
49915;BME280;35806;47.958;13.158;2024-03-25T05:08:02;93866.14;;;1.34;60.63
49915;BME280;35806;47.958;13.158;2024-03-25T05:10:35;93868.91;;;1.33;59.21
49915;BME280;35806;47.958;13.158;2024-03-25T05:13:03;93867.23;;;1.67;58.40
49915;BME280;35806;47.958;13.158;2024-03-25T05:15:30;93866.93;;;1.74;58.74
49915;BME280;35806;47.958;13.158;2024-03-25T05:17:58;93871.91;;;2.15;57.24
49915;BME280;35806;47.958;13.158;2024-03-25T05:20:25;93876.95;;;0.76;61.18
49915;BME280;35806;47.958;13.158;2024-03-25T05:22:53;93879.59;;;1.70;58.35
49915;BME280;35806;47.958;13.158;2024-03-25T05:25:25;93881.86;;;1.02;58.92
49915;BME280;35806;47.958;13.158;2024-03-25T05:27:52;93884.07;;;1.72;57.48
49915;BME280;35806;47.958;13.158;2024-03-25T05:30:20;93881.61;;;1.36;57.61
49915;BME280;35806;47.958;13.158;2024-03-25T05:32:47;93884.28;;;2.33;55.70
49915;BME280;35806;47.958;13.158;2024-03-25T05:35:15;93886.51;;;0.51;59.56
49915;BME280;35806;47.958;13.158;2024-03-25T05:37:43;93887.13;;;0.99;60.24
49915;BME280;35806;47.958;13.158;2024-03-25T05:40:10;93892.87;;;1.66;58.66
49915;BME280;35806;47.958;13.158;2024-03-25T05:42:38;93891.50;;;2.09;56.84
49915;BME280;35806;47.958;13.158;2024-03-25T05:45:06;93894.65;;;1.57;56.74
49915;BME280;35806;47.958;13.158;2024-03-25T05:47:33;93895.72;;;1.69;57.55
49915;BME280;35806;47.958;13.158;2024-03-25T05:50:01;93897.32;;;1.13;58.77
49915;BME280;35806;47.958;13.158;2024-03-25T05:52:29;93903.18;;;1.64;57.90
49915;BME280;35806;47.958;13.158;2024-03-25T05:54:57;93899.88;;;1.76;57.04
49915;BME280;35806;47.958;13.158;2024-03-25T05:57:24;93902.32;;;0.75;59.10
49915;BME280;35806;47.958;13.158;2024-03-25T05:59:52;93906.08;;;2.08;56.61
49915;BME280;35806;47.958;13.158;2024-03-25T06:02:19;93903.81;;;2.58;55.08
49915;BME280;35806;47.958;13.158;2024-03-25T06:04:46;93907.97;;;2.24;55.42
49915;BME280;35806;47.958;13.158;2024-03-25T06:07:13;93910.06;;;2.71;54.75
49915;BME280;35806;47.958;13.158;2024-03-25T06:09:41;93913.17;;;1.87;56.05
49915;BME280;35806;47.958;13.158;2024-03-25T06:12:08;93912.67;;;2.54;55.93
49915;BME280;35806;47.958;13.158;2024-03-25T06:14:35;93917.03;;;2.14;55.18
49915;BME280;35806;47.958;13.158;2024-03-25T06:17:03;93921.54;;;2.12;54.56
49915;BME280;35806;47.958;13.158;2024-03-25T06:19:31;93920.09;;;2.34;54.35
49915;BME280;35806;47.958;13.158;2024-03-25T06:21:58;93923.50;;;3.71;52.99
49915;BME280;35806;47.958;13.158;2024-03-25T06:24:45;93926.02;;;2.89;57.31
49915;BME280;35806;47.958;13.158;2024-03-25T06:27:13;93922.58;;;3.20;56.36
49915;BME280;35806;47.958;13.158;2024-03-25T06:29:40;93926.46;;;3.39;55.83
49915;BME280;35806;47.958;13.158;2024-03-25T06:32:08;93928.49;;;3.26;56.37
49915;BME280;35806;47.958;13.158;2024-03-25T06:34:36;93926.06;;;3.12;56.06
49915;BME280;35806;47.958;13.158;2024-03-25T06:37:03;93931.08;;;3.05;56.73
49915;BME280;35806;47.958;13.158;2024-03-25T06:39:30;93928.68;;;4.13;54.08
49915;BME280;35806;47.958;13.158;2024-03-25T06:41:58;93931.89;;;3.96;55.59
49915;BME280;35806;47.958;13.158;2024-03-25T06:44:35;93931.54;;;3.00;55.46
49915;BME280;35806;47.958;13.158;2024-03-25T06:47:02;93936.45;;;4.32;54.37
49915;BME280;35806;47.958;13.158;2024-03-25T06:49:35;93938.20;;;3.47;56.24
49915;BME280;35806;47.958;13.158;2024-03-25T06:52:02;93936.67;;;3.97;55.23
49915;BME280;35806;47.958;13.158;2024-03-25T06:54:30;93936.40;;;4.14;53.67
49915;BME280;35806;47.958;13.158;2024-03-25T06:56:57;93936.13;;;4.78;52.59
49915;BME280;35806;47.958;13.158;2024-03-25T06:59:25;93944.01;;;3.85;53.44
49915;BME280;35806;47.958;13.158;2024-03-25T07:01:53;93937.89;;;3.79;54.86
49915;BME280;35806;47.958;13.158;2024-03-25T07:04:21;93943.14;;;2.90;53.98
49915;BME280;35806;47.958;13.158;2024-03-25T07:06:48;93943.25;;;3.27;54.32
49915;BME280;35806;47.958;13.158;2024-03-25T07:09:21;93948.25;;;2.86;55.64
49915;BME280;35806;47.958;13.158;2024-03-25T07:11:48;93949.78;;;3.10;56.71
49915;BME280;35806;47.958;13.158;2024-03-25T07:14:22;93950.94;;;3.77;54.07
49915;BME280;35806;47.958;13.158;2024-03-25T07:16:49;93954.38;;;4.25;52.77
49915;BME280;35806;47.958;13.158;2024-03-25T07:19:21;93961.00;;;3.27;56.62
49915;BME280;35806;47.958;13.158;2024-03-25T07:21:48;93956.02;;;3.18;55.89
49915;BME280;35806;47.958;13.158;2024-03-25T07:24:21;93957.16;;;3.59;56.24
49915;BME280;35806;47.958;13.158;2024-03-25T07:26:48;93961.02;;;2.63;58.22
49915;BME280;35806;47.958;13.158;2024-03-25T07:29:21;93960.94;;;3.70;57.33
49915;BME280;35806;47.958;13.158;2024-03-25T07:31:49;93962.60;;;3.03;57.48
49915;BME280;35806;47.958;13.158;2024-03-25T07:34:26;93962.33;;;1.52;60.63
49915;BME280;35806;47.958;13.158;2024-03-25T07:36:54;93957.85;;;2.61;58.76
49915;BME280;35806;47.958;13.158;2024-03-25T07:39:21;93957.08;;;1.94;58.79
49915;BME280;35806;47.958;13.158;2024-03-25T07:41:48;93959.43;;;2.96;56.54
49915;BME280;35806;47.958;13.158;2024-03-25T07:44:17;93962.75;;;3.08;56.04
49915;BME280;35806;47.958;13.158;2024-03-25T07:46:44;93962.24;;;2.64;57.79
49915;BME280;35806;47.958;13.158;2024-03-25T07:49:11;93961.30;;;3.39;55.92
49915;BME280;35806;47.958;13.158;2024-03-25T07:51:39;93964.19;;;3.36;56.05
49915;BME280;35806;47.958;13.158;2024-03-25T07:54:07;93965.37;;;3.96;56.01
49915;BME280;35806;47.958;13.158;2024-03-25T07:56:35;93966.35;;;3.35;57.35
49915;BME280;35806;47.958;13.158;2024-03-25T07:59:02;93965.03;;;3.45;57.45
49915;BME280;35806;47.958;13.158;2024-03-25T08:01:30;93964.68;;;3.46;56.78
49915;BME280;35806;47.958;13.158;2024-03-25T08:03:58;93963.06;;;4.30;55.05
49915;BME280;35806;47.958;13.158;2024-03-25T08:06:25;93965.53;;;5.15;51.22
49915;BME280;35806;47.958;13.158;2024-03-25T08:08:53;93961.66;;;4.74;54.96
49915;BME280;35806;47.958;13.158;2024-03-25T08:11:21;93962.97;;;4.31;55.97
49915;BME280;35806;47.958;13.158;2024-03-25T08:13:48;93963.93;;;5.44;52.86
49915;BME280;35806;47.958;13.158;2024-03-25T08:16:16;93964.80;;;5.48;53.75
49915;BME280;35806;47.958;13.158;2024-03-25T08:18:43;93956.93;;;6.33;49.85
49915;BME280;35806;47.958;13.158;2024-03-25T08:21:11;93957.24;;;6.17;50.98
49915;BME280;35806;47.958;13.158;2024-03-25T08:23:39;93953.04;;;6.56;50.14
49915;BME280;35806;47.958;13.158;2024-03-25T08:26:06;93949.25;;;7.34;48.83
49915;BME280;35806;47.958;13.158;2024-03-25T08:28:34;93953.67;;;7.76;47.64
49915;BME280;35806;47.958;13.158;2024-03-25T08:31:02;93947.68;;;7.69;48.78
49915;BME280;35806;47.958;13.158;2024-03-25T08:33:29;93951.28;;;7.70;47.67
49915;BME280;35806;47.958;13.158;2024-03-25T08:35:57;93952.49;;;4.12;49.97
49915;BME280;35806;47.958;13.158;2024-03-25T08:38:24;93951.82;;;5.26;49.26
49915;BME280;35806;47.958;13.158;2024-03-25T08:40:52;93950.35;;;5.20;48.40
49915;BME280;35806;47.958;13.158;2024-03-25T08:43:20;93946.64;;;5.01;52.15
49915;BME280;35806;47.958;13.158;2024-03-25T08:45:47;93947.53;;;6.27;47.15
49915;BME280;35806;47.958;13.158;2024-03-25T08:48:14;93948.21;;;6.46;46.34
49915;BME280;35806;47.958;13.158;2024-03-25T08:50:41;93945.23;;;7.08;45.76
49915;BME280;35806;47.958;13.158;2024-03-25T08:53:09;93945.48;;;6.20;46.48
49915;BME280;35806;47.958;13.158;2024-03-25T08:55:36;93946.92;;;5.83;45.75
49915;BME280;35806;47.958;13.158;2024-03-25T08:58:04;93951.28;;;4.92;48.26
49915;BME280;35806;47.958;13.158;2024-03-25T09:00:32;93951.98;;;3.41;53.91
49915;BME280;35806;47.958;13.158;2024-03-25T09:02:59;93949.56;;;2.88;52.95
49915;BME280;35806;47.958;13.158;2024-03-25T09:05:26;93945.89;;;2.74;49.64
49915;BME280;35806;47.958;13.158;2024-03-25T09:07:53;93943.65;;;4.04;52.55
49915;BME280;35806;47.958;13.158;2024-03-25T09:10:22;93950.30;;;3.13;53.47
49915;BME280;35806;47.958;13.158;2024-03-25T09:12:49;93948.20;;;3.14;52.59
49915;BME280;35806;47.958;13.158;2024-03-25T09:15:16;93937.77;;;3.84;51.83
49915;BME280;35806;47.958;13.158;2024-03-25T09:17:43;93939.01;;;4.88;46.51
49915;BME280;35806;47.958;13.158;2024-03-25T09:20:11;93936.11;;;5.23;48.24
49915;BME280;35806;47.958;13.158;2024-03-25T09:22:38;93929.64;;;6.09;45.15
49915;BME280;35806;47.958;13.158;2024-03-25T09:25:07;93931.41;;;4.36;45.79
49915;BME280;35806;47.958;13.158;2024-03-25T09:27:35;93929.81;;;3.56;49.37
49915;BME280;35806;47.958;13.158;2024-03-25T09:30:03;93931.98;;;2.38;53.64
49915;BME280;35806;47.958;13.158;2024-03-25T09:32:30;93928.18;;;3.26;54.12
49915;BME280;35806;47.958;13.158;2024-03-25T09:34:58;93931.21;;;3.65;50.24
49915;BME280;35806;47.958;13.158;2024-03-25T09:37:26;93930.28;;;2.11;51.59
49915;BME280;35806;47.958;13.158;2024-03-25T09:39:53;93932.73;;;1.45;53.15
49915;BME280;35806;47.958;13.158;2024-03-25T09:42:26;93932.71;;;1.51;53.37
49915;BME280;35806;47.958;13.158;2024-03-25T09:44:54;93921.47;;;3.47;51.65
49915;BME280;35806;47.958;13.158;2024-03-25T09:47:22;93924.21;;;2.28;50.94
49915;BME280;35806;47.958;13.158;2024-03-25T09:49:51;93921.18;;;3.64;50.29
49915;BME280;35806;47.958;13.158;2024-03-25T09:52:18;93917.28;;;5.02;49.14
49915;BME280;35806;47.958;13.158;2024-03-25T09:54:45;93916.85;;;6.45;43.35
49915;BME280;35806;47.958;13.158;2024-03-25T09:57:14;93913.57;;;7.25;42.57
49915;BME280;35806;47.958;13.158;2024-03-25T09:59:41;93908.25;;;6.78;40.11
49915;BME280;35806;47.958;13.158;2024-03-25T10:02:10;93909.28;;;7.87;39.55
49915;BME280;35806;47.958;13.158;2024-03-25T10:04:42;93914.52;;;4.84;42.45
49915;BME280;35806;47.958;13.158;2024-03-25T10:07:10;93913.69;;;6.08;40.95
49915;BME280;35806;47.958;13.158;2024-03-25T10:09:38;93910.10;;;4.39;45.86
49915;BME280;35806;47.958;13.158;2024-03-25T10:12:27;93907.78;;;5.41;42.90
49915;BME280;35806;47.958;13.158;2024-03-25T10:14:54;93909.42;;;4.50;44.18
49915;BME280;35806;47.958;13.158;2024-03-25T10:17:22;93907.38;;;3.16;47.68
49915;BME280;35806;47.958;13.158;2024-03-25T10:19:50;93905.61;;;3.13;48.16
49915;BME280;35806;47.958;13.158;2024-03-25T10:22:17;93902.65;;;4.80;46.11
49915;BME280;35806;47.958;13.158;2024-03-25T10:24:45;93902.39;;;6.59;40.92
49915;BME280;35806;47.958;13.158;2024-03-25T10:27:18;93891.34;;;8.10;39.07
49915;BME280;35806;47.958;13.158;2024-03-25T10:29:46;93888.85;;;9.01;37.84
49915;BME280;35806;47.958;13.158;2024-03-25T10:32:14;93889.24;;;9.10;35.06
49915;BME280;35806;47.958;13.158;2024-03-25T10:34:41;93884.11;;;9.70;37.19
49915;BME280;35806;47.958;13.158;2024-03-25T10:37:10;93878.90;;;10.12;36.26
49915;BME280;35806;47.958;13.158;2024-03-25T10:39:40;93878.94;;;9.75;33.61
49915;BME280;35806;47.958;13.158;2024-03-25T10:42:14;93880.11;;;8.91;34.68
49915;BME280;35806;47.958;13.158;2024-03-25T10:44:42;93872.31;;;8.31;35.57
49915;BME280;35806;47.958;13.158;2024-03-25T10:47:12;93867.55;;;8.40;35.71
49915;BME280;35806;47.958;13.158;2024-03-25T10:49:47;93868.54;;;8.35;35.89
49915;BME280;35806;47.958;13.158;2024-03-25T10:52:15;93867.99;;;8.83;35.55
49915;BME280;35806;47.958;13.158;2024-03-25T10:54:45;93861.79;;;8.41;35.71
49915;BME280;35806;47.958;13.158;2024-03-25T10:57:14;93855.77;;;8.36;34.06
49915;BME280;35806;47.958;13.158;2024-03-25T10:59:43;93859.88;;;7.73;35.88
49915;BME280;35806;47.958;13.158;2024-03-25T11:02:10;93854.04;;;7.67;38.19
49915;BME280;35806;47.958;13.158;2024-03-25T11:04:38;93848.68;;;8.04;36.83
49915;BME280;35806;47.958;13.158;2024-03-25T11:07:07;93840.11;;;8.92;35.20
49915;BME280;35806;47.958;13.158;2024-03-25T11:09:34;93835.18;;;9.56;35.30
49915;BME280;35806;47.958;13.158;2024-03-25T11:12:03;93831.57;;;9.07;35.27
49915;BME280;35806;47.958;13.158;2024-03-25T11:14:31;93835.87;;;7.69;38.47
49915;BME280;35806;47.958;13.158;2024-03-25T11:16:58;93844.73;;;6.98;35.54
49915;BME280;35806;47.958;13.158;2024-03-25T11:19:26;93834.26;;;8.00;37.36
49915;BME280;35806;47.958;13.158;2024-03-25T11:21:55;93838.45;;;9.52;34.24
49915;BME280;35806;47.958;13.158;2024-03-25T11:24:27;93829.48;;;11.00;32.16
49915;BME280;35806;47.958;13.158;2024-03-25T11:26:55;93828.72;;;11.24;33.34
49915;BME280;35806;47.958;13.158;2024-03-25T11:29:23;93831.72;;;9.73;30.71
49915;BME280;35806;47.958;13.158;2024-03-25T11:31:53;93828.27;;;9.94;31.79
49915;BME280;35806;47.958;13.158;2024-03-25T11:34:20;93821.79;;;9.78;32.53
49915;BME280;35806;47.958;13.158;2024-03-25T11:36:48;93819.53;;;10.52;33.53
49915;BME280;35806;47.958;13.158;2024-03-25T11:39:17;93814.77;;;11.02;30.54
49915;BME280;35806;47.958;13.158;2024-03-25T11:41:45;93809.51;;;10.72;31.92
49915;BME280;35806;47.958;13.158;2024-03-25T11:44:12;93809.02;;;9.69;33.38
49915;BME280;35806;47.958;13.158;2024-03-25T11:46:40;93803.99;;;10.31;32.25
49915;BME280;35806;47.958;13.158;2024-03-25T11:49:14;93801.12;;;10.09;33.12
49915;BME280;35806;47.958;13.158;2024-03-25T11:51:43;93801.59;;;10.33;31.72
49915;BME280;35806;47.958;13.158;2024-03-25T11:54:11;93799.22;;;10.42;32.83
49915;BME280;35806;47.958;13.158;2024-03-25T11:56:39;93796.29;;;9.40;31.02
49915;BME280;35806;47.958;13.158;2024-03-25T11:59:06;93797.82;;;8.68;33.48
49915;BME280;35806;47.958;13.158;2024-03-25T12:01:36;93794.65;;;8.95;33.67
49915;BME280;35806;47.958;13.158;2024-03-25T12:04:10;93788.48;;;9.27;33.12
49915;BME280;35806;47.958;13.158;2024-03-25T12:06:38;93787.17;;;9.09;34.32
49915;BME280;35806;47.958;13.158;2024-03-25T12:09:05;93780.40;;;9.56;33.44
49915;BME280;35806;47.958;13.158;2024-03-25T12:11:34;93772.81;;;9.99;32.09
49915;BME280;35806;47.958;13.158;2024-03-25T12:14:01;93773.21;;;10.68;33.67
49915;BME280;35806;47.958;13.158;2024-03-25T12:16:29;93771.68;;;10.88;29.99
49915;BME280;35806;47.958;13.158;2024-03-25T12:18:56;93765.75;;;12.06;31.31
49915;BME280;35806;47.958;13.158;2024-03-25T12:21:25;93764.30;;;13.40;28.58
49915;BME280;35806;47.958;13.158;2024-03-25T12:23:54;93756.00;;;13.28;29.19
49915;BME280;35806;47.958;13.158;2024-03-25T12:26:22;93750.56;;;14.21;26.46
49915;BME280;35806;47.958;13.158;2024-03-25T12:28:51;93742.34;;;14.60;28.74
49915;BME280;35806;47.958;13.158;2024-03-25T12:31:19;93739.96;;;14.87;26.70
49915;BME280;35806;47.958;13.158;2024-03-25T12:33:50;93743.28;;;13.13;27.66
49915;BME280;35806;47.958;13.158;2024-03-25T12:36:35;93737.51;;;12.88;27.19
49915;BME280;35806;47.958;13.158;2024-03-25T12:39:03;93732.64;;;12.82;26.48
49915;BME280;35806;47.958;13.158;2024-03-25T12:41:30;93729.82;;;12.24;27.08
49915;BME280;35806;47.958;13.158;2024-03-25T12:44:12;93731.74;;;12.19;26.97
49915;BME280;35806;47.958;13.158;2024-03-25T12:46:45;93729.78;;;11.08;27.59
49915;BME280;35806;47.958;13.158;2024-03-25T12:49:22;93725.95;;;11.30;26.20
49915;BME280;35806;47.958;13.158;2024-03-25T12:52:56;93725.91;;;11.07;26.91
49915;BME280;35806;47.958;13.158;2024-03-25T12:55:24;93723.55;;;8.97;29.48
49915;BME280;35806;47.958;13.158;2024-03-25T12:57:51;93721.28;;;7.91;32.28
49915;BME280;35806;47.958;13.158;2024-03-25T13:00:19;93714.47;;;7.30;32.69
49915;BME280;35806;47.958;13.158;2024-03-25T13:02:46;93705.87;;;9.85;31.54
49915;BME280;35806;47.958;13.158;2024-03-25T13:05:14;93699.36;;;11.94;29.05
49915;BME280;35806;47.958;13.158;2024-03-25T13:07:41;93698.09;;;12.87;26.50